createdAt,value
2019-01-31T00:01:18.380Z,3.43
2019-01-31T00:03:54.015Z,3.30
2019-01-31T00:06:23.903Z,4.17
2019-01-31T00:08:56.701Z,5.37
2019-01-31T00:11:29.816Z,4.23
2019-01-31T00:13:59.636Z,3.70
2019-01-31T00:16:35.299Z,3.57
2019-01-31T00:19:20.233Z,2.90
2019-01-31T00:22:12.415Z,3.03
2019-01-31T00:24:45.340Z,2.50
2019-01-31T00:27:17.912Z,2.30
2019-01-31T00:29:53.087Z,3.07
2019-01-31T00:32:42.794Z,3.17
2019-01-31T00:35:18.274Z,2.47
2019-01-31T00:38:11.247Z,2.43
2019-01-31T00:40:46.670Z,2.63
2019-01-31T00:43:40.708Z,2.83
2019-01-31T00:46:19.580Z,2.40
2019-01-31T00:49:21.140Z,2.77
2019-01-31T00:52:16.703Z,2.10
2019-01-31T00:55:01.365Z,2.73
2019-01-31T00:57:34.036Z,2.70
2019-01-31T01:00:15.875Z,2.60
2019-01-31T01:02:57.283Z,2.83
2019-01-31T01:05:27.102Z,2.70
2019-01-31T01:07:59.932Z,2.70
2019-01-31T01:10:35.624Z,2.80
2019-01-31T01:13:05.499Z,2.60
2019-01-31T01:15:59.824Z,3.30
2019-01-31T01:18:34.780Z,2.50
2019-01-31T01:21:04.603Z,2.37
2019-01-31T01:23:34.445Z,2.67
2019-01-31T01:26:13.159Z,2.58
2019-01-31T01:28:48.642Z,3.33
2019-01-31T01:31:18.484Z,4.23
2019-01-31T01:34:06.780Z,4.03
2019-01-31T01:36:57.534Z,3.90
2019-01-31T01:39:42.494Z,3.40
2019-01-31T01:42:18.376Z,3.37
2019-01-31T01:44:51.243Z,3.13
2019-01-31T01:47:33.151Z,3.27
2019-01-31T01:50:02.995Z,3.10
2019-01-31T01:52:38.388Z,3.00
2019-01-31T01:55:11.221Z,2.53
2019-01-31T01:57:41.031Z,2.50
2019-01-31T02:00:40.351Z,2.87
2019-01-31T02:03:19.548Z,2.17
2019-01-31T02:05:52.539Z,3.23
2019-01-31T02:08:41.723Z,1.63
2019-01-31T02:11:35.563Z,2.80
2019-01-31T02:14:08.236Z,2.90
2019-01-31T02:16:38.098Z,2.97
2019-01-31T02:19:19.911Z,3.23
2019-01-31T02:22:07.923Z,3.03
2019-01-31T02:24:40.791Z,2.90
2019-01-31T02:27:16.084Z,3.20
2019-01-31T02:29:48.976Z,2.80
2019-01-31T02:32:31.195Z,2.50
2019-01-31T02:35:09.908Z,2.90
2019-01-31T02:37:51.831Z,2.30
2019-01-31T02:40:24.695Z,2.60
2019-01-31T02:42:57.332Z,2.73
2019-01-31T02:45:45.451Z,2.63
2019-01-31T02:48:15.301Z,3.13
2019-01-31T02:51:03.287Z,3.00
2019-01-31T02:53:35.915Z,3.00
2019-01-31T02:56:08.562Z,2.70
2019-01-31T02:58:43.891Z,2.63
2019-01-31T03:01:13.744Z,2.57
2019-01-31T03:03:52.756Z,3.00
2019-01-31T03:06:37.935Z,3.47
2019-01-31T03:09:07.757Z,2.60
2019-01-31T03:11:56.731Z,2.70
2019-01-31T03:14:26.562Z,2.70
2019-01-31T03:17:13.229Z,2.70
2019-01-31T03:19:43.043Z,2.30
2019-01-31T03:22:18.907Z,2.30
2019-01-31T03:24:51.499Z,2.60
2019-01-31T03:27:42.483Z,2.80
2019-01-31T03:30:18.347Z,3.60
2019-01-31T03:32:48.188Z,2.43
2019-01-31T03:35:21.085Z,2.40
2019-01-31T03:37:56.956Z,2.30
2019-01-31T03:40:32.118Z,2.50
2019-01-31T03:43:18.852Z,2.03
2019-01-31T03:46:03.692Z,2.27
2019-01-31T03:49:08.484Z,3.03
2019-01-31T03:52:01.094Z,2.97
2019-01-31T03:54:45.782Z,2.83
2019-01-31T03:57:21.896Z,2.93
2019-01-31T03:59:51.767Z,2.80
2019-01-31T04:02:24.331Z,3.00
2019-01-31T04:05:11.075Z,3.63
2019-01-31T04:07:37.107Z,3.50
2019-01-31T04:10:06.120Z,4.30
2019-01-31T04:12:32.164Z,3.73
2019-01-31T04:14:58.181Z,3.43
2019-01-31T04:17:24.215Z,4.13
2019-01-31T04:19:50.230Z,4.07
2019-01-31T04:22:16.240Z,4.10
2019-01-31T04:24:42.271Z,3.90
2019-01-31T04:27:08.284Z,3.50
2019-01-31T04:29:34.380Z,4.20
2019-01-31T04:32:00.396Z,3.77
2019-01-31T04:34:26.403Z,3.77
2019-01-31T04:36:52.448Z,3.10
2019-01-31T04:39:18.460Z,3.10
2019-01-31T04:41:44.474Z,3.10
2019-01-31T04:44:10.495Z,2.53
2019-01-31T04:46:36.563Z,3.13
2019-01-31T04:49:02.579Z,2.77
2019-01-31T04:51:28.615Z,2.93
2019-01-31T04:53:54.662Z,3.80
2019-01-31T04:56:20.719Z,2.90
2019-01-31T04:58:46.753Z,2.40
2019-01-31T05:01:12.782Z,2.27
2019-01-31T05:03:38.814Z,3.53
2019-01-31T05:06:04.822Z,1.80
2019-01-31T05:08:31.153Z,2.70
2019-01-31T05:10:57.175Z,2.27
2019-01-31T05:13:23.178Z,2.30
2019-01-31T05:15:49.231Z,2.60
2019-01-31T05:18:15.250Z,2.30
2019-01-31T05:20:41.279Z,1.90
2019-01-31T05:23:07.290Z,2.53
2019-01-31T05:25:33.336Z,2.40
2019-01-31T05:27:59.348Z,2.57
2019-01-31T05:30:25.372Z,2.50
2019-01-31T05:32:51.407Z,3.20
2019-01-31T05:35:17.445Z,2.83
2019-01-31T05:37:43.452Z,2.23
2019-01-31T05:40:11.999Z,2.20
2019-01-31T05:42:38.014Z,1.80
2019-01-31T05:45:07.452Z,2.27
2019-01-31T05:47:33.468Z,2.40
2019-01-31T05:49:59.503Z,2.57
2019-01-31T05:52:25.567Z,1.90
2019-01-31T05:54:51.593Z,1.90
2019-01-31T05:57:17.612Z,1.23
2019-01-31T05:59:43.678Z,1.90
2019-01-31T06:02:09.712Z,1.70
2019-01-31T06:04:35.735Z,1.57
2019-01-31T06:07:10.885Z,1.37
2019-01-31T06:09:29.683Z,1.07
2019-01-31T06:11:55.724Z,1.37
2019-01-31T06:14:21.743Z,1.40
2019-01-31T06:16:47.787Z,1.43
2019-01-31T06:19:13.822Z,1.50
2019-01-31T06:21:39.898Z,1.40
2019-01-31T06:24:06.848Z,1.50
2019-01-31T06:26:32.907Z,2.10
2019-01-31T06:28:58.972Z,1.80
2019-01-31T06:31:25.038Z,2.20
2019-01-31T06:33:51.092Z,1.80
2019-01-31T06:36:17.111Z,1.70
2019-01-31T06:38:43.235Z,1.63
2019-01-31T06:41:18.314Z,1.90
2019-01-31T06:43:37.299Z,1.57
2019-01-31T06:46:03.339Z,1.90
2019-01-31T06:48:29.363Z,2.60
2019-01-31T06:50:55.399Z,1.30
2019-01-31T06:53:21.414Z,1.30
2019-01-31T06:55:47.459Z,2.47
2019-01-31T06:58:13.483Z,2.12
2019-01-31T07:00:39.496Z,2.00
2019-01-31T07:03:05.587Z,1.90
2019-01-31T07:05:31.652Z,1.60
2019-01-31T07:07:57.674Z,1.37
2019-01-31T07:10:24.751Z,1.60
2019-01-31T07:12:50.748Z,1.87
2019-01-31T07:15:16.786Z,11.27
2019-01-31T07:17:42.903Z,7.83
2019-01-31T07:20:11.651Z,2.13
2019-01-31T07:22:37.663Z,2.00
2019-01-31T07:25:06.603Z,1.90
2019-01-31T07:27:32.619Z,1.50
2019-01-31T07:29:58.630Z,1.40
2019-01-31T07:32:26.037Z,1.67
2019-01-31T07:34:52.101Z,1.73
2019-01-31T07:37:18.138Z,1.53
2019-01-31T07:39:44.148Z,2.07
2019-01-31T07:42:10.179Z,1.50
2019-01-31T07:44:36.247Z,1.40
2019-01-31T07:47:02.282Z,1.93
2019-01-31T07:49:28.316Z,1.53
2019-01-31T07:51:54.356Z,2.67
2019-01-31T07:54:20.379Z,1.80
2019-01-31T07:56:46.417Z,1.73
2019-01-31T07:59:12.426Z,2.43
2019-01-31T08:01:40.806Z,1.93
2019-01-31T08:04:06.383Z,1.77
2019-01-31T08:06:32.471Z,1.90
2019-01-31T08:08:58.475Z,2.33
2019-01-31T08:11:24.507Z,2.27
2019-01-31T08:13:50.523Z,2.27
2019-01-31T08:16:16.555Z,1.90
2019-01-31T08:18:42.588Z,2.40
2019-01-31T08:21:08.590Z,2.80
2019-01-31T08:23:34.630Z,2.40
2019-01-31T08:26:00.677Z,2.53
2019-01-31T08:28:26.699Z,2.60
2019-01-31T08:30:52.721Z,2.50
2019-01-31T08:33:18.749Z,2.70
2019-01-31T08:35:44.763Z,2.67
2019-01-31T08:38:10.798Z,2.80
2019-01-31T08:40:36.830Z,2.40
2019-01-31T08:43:02.952Z,2.20
2019-01-31T08:45:29.009Z,2.40
2019-01-31T08:47:55.019Z,2.93
2019-01-31T08:50:27.675Z,2.17
2019-01-31T08:52:53.756Z,2.27
2019-01-31T08:55:19.795Z,2.30
2019-01-31T08:57:47.626Z,2.47
2019-01-31T09:00:25.762Z,3.00
2019-01-31T09:02:51.778Z,3.13
2019-01-31T09:05:17.838Z,3.30
2019-01-31T09:07:43.872Z,3.33
2019-01-31T09:10:18.507Z,3.43
2019-01-31T09:12:44.539Z,4.10
2019-01-31T09:15:13.456Z,4.47
2019-01-31T09:17:39.495Z,3.23
2019-01-31T09:20:30.300Z,3.80
2019-01-31T09:23:05.704Z,4.50
2019-01-31T09:25:52.700Z,4.23
2019-01-31T09:28:28.675Z,4.50
2019-01-31T09:31:22.523Z,5.07
2019-01-31T09:34:01.615Z,5.07
2019-01-31T09:36:34.175Z,4.70
2019-01-31T09:39:13.076Z,3.23
2019-01-31T09:41:42.923Z,5.50
2019-01-31T09:44:15.283Z,5.20
2019-01-31T09:46:45.130Z,5.10
2019-01-31T09:49:35.252Z,5.93
2019-01-31T09:52:28.840Z,5.33
2019-01-31T09:55:07.215Z,6.60
2019-01-31T09:57:54.988Z,6.70
2019-01-31T10:00:53.459Z,7.07
2019-01-31T10:03:35.687Z,7.47
2019-01-31T10:06:29.706Z,8.10
2019-01-31T10:09:17.163Z,9.43
2019-01-31T10:11:47.031Z,10.00
2019-01-31T10:14:25.487Z,10.77
2019-01-31T10:17:04.568Z,9.60
2019-01-31T10:19:51.190Z,8.50
2019-01-31T10:22:23.824Z,9.17
2019-01-31T10:25:02.969Z,9.17
2019-01-31T10:27:38.570Z,8.67
2019-01-31T10:30:25.114Z,7.83
2019-01-31T10:33:15.902Z,8.93
2019-01-31T10:36:05.689Z,7.90
2019-01-31T10:38:44.451Z,12.85
2019-01-31T10:41:23.266Z,9.00
2019-01-31T10:43:55.858Z,10.97
2019-01-31T10:46:25.681Z,9.30
2019-01-31T10:49:12.195Z,10.10
2019-01-31T10:51:51.211Z,10.67
2019-01-31T10:54:39.521Z,9.67
2019-01-31T10:57:26.267Z,8.73
2019-01-31T11:00:23.682Z,8.20
2019-01-31T11:03:14.615Z,9.77
2019-01-31T11:05:44.459Z,10.47
2019-01-31T11:08:23.532Z,10.13
2019-01-31T11:10:53.379Z,10.23
2019-01-31T11:13:40.384Z,9.70
2019-01-31T11:16:13.187Z,8.10
2019-01-31T11:18:48.859Z,8.57
2019-01-31T11:21:24.515Z,8.00
2019-01-31T11:24:00.191Z,9.60
2019-01-31T11:26:56.970Z,7.10
2019-01-31T11:29:31.807Z,7.27
2019-01-31T11:32:24.385Z,9.03
2019-01-31T11:35:18.051Z,8.03
2019-01-31T11:38:05.991Z,8.07
2019-01-31T11:40:51.159Z,7.53
2019-01-31T11:43:23.999Z,5.50
2019-01-31T11:46:02.593Z,6.80
2019-01-31T11:48:35.676Z,6.33
2019-01-31T11:51:48.604Z,6.60
2019-01-31T11:54:55.461Z,6.93
2019-01-31T11:57:40.426Z,6.37
2019-01-31T12:00:12.088Z,5.13
2019-01-31T12:02:38.089Z,3.77
2019-01-31T12:05:04.239Z,4.30
2019-01-31T12:07:30.287Z,5.50
2019-01-31T12:09:56.324Z,5.33
2019-01-31T12:12:22.340Z,4.30
2019-01-31T12:14:48.443Z,3.40
2019-01-31T12:17:14.487Z,4.03
2019-01-31T12:19:40.518Z,3.90
2019-01-31T12:22:06.519Z,4.00
2019-01-31T12:24:32.566Z,3.87
2019-01-31T12:26:58.570Z,3.17
2019-01-31T12:29:24.615Z,3.43
2019-01-31T12:31:51.033Z,3.47
2019-01-31T12:34:17.044Z,3.33
2019-01-31T12:36:43.079Z,4.27
2019-01-31T12:39:09.091Z,3.50
2019-01-31T12:41:35.366Z,3.73
2019-01-31T12:44:01.416Z,3.93
2019-01-31T12:46:27.510Z,3.37
2019-01-31T12:48:53.519Z,3.30
2019-01-31T12:51:19.579Z,3.87
2019-01-31T12:53:45.623Z,2.93
2019-01-31T12:56:11.655Z,2.90
2019-01-31T12:58:37.693Z,2.27
2019-01-31T13:01:03.710Z,1.90
2019-01-31T13:03:29.782Z,2.40
2019-01-31T13:05:55.811Z,2.33
2019-01-31T13:08:21.851Z,1.40
2019-01-31T13:10:47.894Z,1.90
2019-01-31T13:13:14.219Z,1.93
2019-01-31T13:15:40.256Z,2.13
2019-01-31T13:18:06.274Z,2.33
2019-01-31T13:20:32.308Z,2.03
2019-01-31T13:22:58.322Z,2.00
2019-01-31T13:25:24.604Z,2.57
2019-01-31T13:27:50.820Z,2.20
2019-01-31T13:30:19.235Z,1.50
2019-01-31T13:32:45.274Z,1.60
2019-01-31T13:35:13.183Z,1.27
2019-01-31T13:37:39.203Z,1.63
2019-01-31T13:40:11.604Z,1.90
2019-01-31T13:42:37.639Z,1.67
2019-01-31T13:45:07.482Z,1.97
2019-01-31T13:47:33.520Z,1.77
2019-01-31T13:49:59.578Z,2.17
2019-01-31T13:52:25.600Z,1.93
2019-01-31T13:54:51.620Z,2.33
2019-01-31T13:57:17.731Z,1.97
2019-01-31T13:59:43.751Z,2.30
2019-01-31T14:02:09.787Z,2.17
2019-01-31T14:04:35.832Z,2.33
2019-01-31T14:07:01.964Z,2.37
2019-01-31T14:09:28.026Z,2.33
2019-01-31T14:11:54.063Z,2.50
2019-01-31T14:14:20.157Z,2.53
2019-01-31T14:16:47.641Z,2.17
2019-01-31T14:19:14.171Z,2.53
2019-01-31T14:21:40.187Z,2.93
2019-01-31T14:24:06.218Z,2.20
2019-01-31T14:26:32.257Z,2.10
2019-01-31T14:28:58.266Z,2.13
2019-01-31T14:31:44.195Z,2.90
2019-01-31T14:34:10.203Z,2.65
2019-01-31T14:36:36.280Z,2.47
2019-01-31T14:39:04.221Z,2.83
2019-01-31T14:41:30.254Z,2.93
2019-01-31T14:43:56.391Z,3.30
2019-01-31T14:46:22.411Z,3.60
2019-01-31T14:48:48.531Z,3.37
2019-01-31T14:51:14.670Z,3.60
2019-01-31T14:53:40.727Z,4.57
2019-01-31T14:56:06.811Z,3.90
2019-01-31T14:58:32.878Z,3.10
2019-01-31T15:00:58.983Z,3.10
2019-01-31T15:03:25.106Z,3.10
2019-01-31T15:05:51.115Z,3.20
2019-01-31T15:08:17.155Z,3.20
2019-01-31T15:10:45.823Z,2.97
2019-01-31T15:13:11.143Z,2.87
2019-01-31T15:15:37.187Z,3.70
2019-01-31T15:18:04.505Z,3.87
2019-01-31T15:20:37.501Z,3.57
2019-01-31T15:23:01.078Z,3.00
2019-01-31T15:25:27.115Z,2.83
2019-01-31T15:27:53.142Z,2.90
2019-01-31T15:30:48.384Z,3.23
2019-01-31T15:33:14.463Z,4.13
2019-01-31T15:35:40.492Z,3.60
2019-01-31T15:38:06.506Z,3.30
2019-01-31T15:40:41.538Z,3.63
2019-01-31T15:43:07.551Z,3.63
2019-01-31T15:45:33.591Z,4.13
2019-01-31T15:47:59.637Z,3.50
2019-01-31T15:50:25.735Z,3.83
2019-01-31T15:52:51.758Z,4.13
2019-01-31T15:55:22.895Z,4.27
2019-01-31T15:57:48.907Z,5.33
2019-01-31T16:00:26.343Z,5.67
2019-01-31T16:02:52.359Z,6.60
2019-01-31T16:05:19.309Z,4.03
2019-01-31T16:07:45.534Z,3.73
2019-01-31T16:10:11.663Z,4.10
2019-01-31T16:12:37.963Z,3.33
2019-01-31T16:15:13.558Z,4.57
2019-01-31T16:17:39.652Z,5.53
2019-01-31T16:20:08.766Z,5.00
2019-01-31T16:22:34.934Z,3.83
2019-01-31T16:25:01.024Z,3.57
2019-01-31T16:27:27.062Z,3.60
2019-01-31T16:29:53.075Z,4.83
2019-01-31T16:32:19.083Z,4.03
2019-01-31T16:34:45.192Z,4.00
2019-01-31T16:37:11.247Z,3.50
2019-01-31T16:39:37.259Z,4.15
2019-01-31T16:42:03.304Z,4.27
2019-01-31T16:44:29.343Z,4.03
2019-01-31T16:46:55.379Z,3.73
2019-01-31T16:49:21.435Z,3.30
2019-01-31T16:51:47.519Z,4.20
2019-01-31T16:54:13.547Z,5.00
2019-01-31T16:56:43.826Z,4.33
2019-01-31T16:59:10.120Z,4.20
2019-01-31T17:01:36.386Z,3.90
2019-01-31T17:04:02.764Z,4.33
2019-01-31T17:06:28.890Z,4.00
2019-01-31T17:08:54.906Z,3.97
2019-01-31T17:11:40.816Z,3.57
2019-01-31T17:14:07.096Z,3.63
2019-01-31T17:16:33.207Z,3.30
2019-01-31T17:18:59.394Z,4.10
2019-01-31T17:21:25.536Z,4.67
2019-01-31T17:23:51.575Z,3.47
2019-01-31T17:26:17.623Z,3.30
2019-01-31T17:28:43.667Z,3.57
2019-01-31T17:31:09.762Z,3.33
2019-01-31T17:33:35.805Z,3.40
2019-01-31T17:36:01.815Z,3.50
2019-01-31T17:38:27.822Z,3.37
2019-01-31T17:40:53.855Z,3.77
2019-01-31T17:43:19.903Z,3.20
2019-01-31T17:45:46.111Z,6.03
2019-01-31T17:48:14.231Z,9.53
2019-01-31T17:50:40.242Z,23.30
2019-01-31T17:53:06.267Z,7.60
2019-01-31T17:55:32.314Z,11.77
2019-01-31T17:57:58.333Z,13.13
2019-01-31T18:00:34.255Z,3.50
2019-01-31T18:03:00.376Z,3.80
2019-01-31T18:05:26.455Z,6.87
2019-01-31T18:07:52.470Z,7.10
2019-01-31T18:10:21.978Z,13.00
2019-01-31T18:12:48.015Z,15.17
2019-01-31T18:15:14.057Z,4.83
2019-01-31T18:17:40.159Z,4.13
2019-01-31T18:20:12.904Z,3.90
2019-01-31T18:22:38.919Z,5.87
2019-01-31T18:25:06.585Z,5.53
2019-01-31T18:27:32.595Z,3.70
2019-01-31T18:29:58.611Z,3.80
2019-01-31T18:32:24.675Z,4.20
2019-01-31T18:34:50.695Z,4.55
2019-01-31T18:37:16.839Z,3.87
2019-01-31T18:39:42.859Z,3.53
2019-01-31T18:42:09.004Z,4.07
2019-01-31T18:44:35.023Z,3.40
2019-01-31T18:47:01.036Z,3.10
2019-01-31T18:49:27.071Z,3.33
2019-01-31T18:51:53.085Z,2.97
2019-01-31T18:54:19.159Z,2.83
2019-01-31T18:56:45.275Z,3.27
2019-01-31T18:59:11.311Z,3.20
2019-01-31T19:01:37.329Z,4.00
2019-01-31T19:04:03.403Z,3.50
2019-01-31T19:06:29.424Z,3.03
2019-01-31T19:09:15.337Z,2.87
2019-01-31T19:11:41.347Z,3.47
2019-01-31T19:14:07.459Z,3.60
2019-01-31T19:16:33.547Z,3.17
2019-01-31T19:18:59.588Z,3.47
2019-01-31T19:21:25.651Z,3.73
2019-01-31T19:23:51.729Z,3.93
2019-01-31T19:26:17.756Z,4.53
2019-01-31T19:28:43.864Z,3.77
2019-01-31T19:31:09.903Z,4.30
2019-01-31T19:33:35.915Z,4.60
2019-01-31T19:36:01.980Z,3.90
2019-01-31T19:38:27.995Z,4.23
2019-01-31T19:40:54.039Z,5.90
2019-01-31T19:43:20.147Z,4.50
2019-01-31T19:45:46.866Z,4.53
2019-01-31T19:48:12.899Z,4.80
2019-01-31T19:50:38.968Z,4.57
2019-01-31T19:53:05.025Z,4.53
2019-01-31T19:55:31.074Z,5.00
2019-01-31T19:57:57.087Z,5.60
2019-01-31T20:00:24.642Z,5.07
2019-01-31T20:02:50.656Z,6.12
2019-01-31T20:05:16.683Z,4.53
2019-01-31T20:07:43.100Z,4.70
2019-01-31T20:10:13.039Z,4.37
2019-01-31T20:12:39.068Z,4.50
2019-01-31T20:15:26.975Z,5.10
2019-01-31T20:17:52.992Z,5.57
2019-01-31T20:20:20.981Z,4.93
2019-01-31T20:22:48.267Z,4.00
2019-01-31T20:25:14.403Z,4.67
2019-01-31T20:27:40.431Z,4.33
2019-01-31T20:30:13.205Z,4.83
2019-01-31T20:32:39.212Z,4.20
2019-01-31T20:35:11.679Z,4.60
2019-01-31T20:37:37.721Z,4.80
2019-01-31T20:40:07.539Z,4.07
2019-01-31T20:42:33.587Z,4.53
2019-01-31T20:44:59.603Z,4.43
2019-01-31T20:47:25.680Z,3.60
2019-01-31T20:49:51.700Z,3.90
2019-01-31T20:52:17.731Z,4.23
2019-01-31T20:54:43.748Z,3.80
2019-01-31T20:57:09.791Z,4.20
2019-01-31T20:59:35.840Z,3.27
2019-01-31T21:02:01.863Z,4.43
2019-01-31T21:04:27.879Z,3.63
2019-01-31T21:06:53.918Z,2.97
2019-01-31T21:09:19.955Z,2.83
2019-01-31T21:11:46.042Z,2.93
2019-01-31T21:14:12.056Z,3.80
2019-01-31T21:16:38.090Z,3.03
2019-01-31T21:19:04.139Z,2.87
2019-01-31T21:21:30.160Z,3.00
2019-01-31T21:23:56.175Z,3.07
2019-01-31T21:26:24.676Z,3.47
2019-01-31T21:28:50.195Z,2.90
2019-01-31T21:31:16.262Z,2.73
2019-01-31T21:33:42.279Z,2.70
2019-01-31T21:36:08.322Z,3.43
2019-01-31T21:38:34.339Z,2.97
2019-01-31T21:41:00.368Z,3.20
2019-01-31T21:43:26.381Z,3.20
2019-01-31T21:45:52.422Z,3.00
2019-01-31T21:48:18.523Z,3.20
2019-01-31T21:50:44.596Z,3.20
2019-01-31T21:53:10.650Z,3.60
2019-01-31T21:55:36.671Z,2.97
2019-01-31T21:58:02.813Z,3.13
2019-01-31T22:00:33.323Z,3.30
2019-01-31T22:02:59.339Z,3.33
2019-01-31T22:05:25.377Z,3.10
2019-01-31T22:07:51.415Z,2.90
2019-01-31T22:10:18.620Z,3.43
2019-01-31T22:12:44.900Z,2.60
2019-01-31T22:15:14.711Z,3.13
2019-01-31T22:17:40.748Z,3.30
2019-01-31T22:20:08.761Z,3.20
2019-01-31T22:22:34.814Z,2.90
2019-01-31T22:25:00.910Z,2.83
2019-01-31T22:27:27.135Z,3.10
2019-01-31T22:29:53.146Z,2.90
2019-01-31T22:32:19.183Z,2.80
2019-01-31T22:34:45.215Z,2.47
2019-01-31T22:37:13.931Z,2.37
2019-01-31T22:39:39.944Z,2.10
2019-01-31T22:42:05.974Z,2.63
2019-01-31T22:44:31.986Z,2.60
2019-01-31T22:46:58.115Z,2.37
2019-01-31T22:49:24.272Z,2.27
2019-01-31T22:51:50.279Z,2.57
2019-01-31T22:54:16.311Z,2.10
2019-01-31T22:56:42.352Z,2.37
2019-01-31T22:59:08.387Z,2.67
2019-01-31T23:01:36.207Z,2.40
2019-01-31T23:04:02.351Z,2.33
2019-01-31T23:06:28.367Z,2.40
2019-01-31T23:08:54.399Z,2.30
2019-01-31T23:11:20.438Z,2.40
2019-01-31T23:13:46.474Z,2.40
2019-01-31T23:16:13.628Z,2.60
2019-01-31T23:18:39.634Z,2.20
2019-01-31T23:21:05.651Z,1.90
2019-01-31T23:23:31.691Z,1.60
2019-01-31T23:25:57.704Z,1.73
2019-01-31T23:28:23.735Z,1.90
2019-01-31T23:30:49.749Z,2.03
2019-01-31T23:33:15.787Z,1.53
2019-01-31T23:35:41.834Z,1.73
2019-01-31T23:38:07.864Z,1.80
2019-01-31T23:40:33.903Z,1.77
2019-01-31T23:42:59.915Z,2.20
2019-01-31T23:45:25.947Z,2.10
2019-01-31T23:47:51.983Z,3.20
2019-01-31T23:50:17.993Z,49.33
2019-01-31T23:52:44.007Z,52.80
2019-01-31T23:55:14.419Z,2.17
2019-01-31T23:57:40.435Z,1.60
